createdAt,value
2022-10-07T00:01:01.255Z,10.40
2022-10-07T00:03:30.763Z,10.40
2022-10-07T00:06:01.619Z,10.40
2022-10-07T00:08:30.941Z,10.30
2022-10-07T00:10:58.014Z,10.30
2022-10-07T00:13:24.701Z,10.30
2022-10-07T00:15:51.405Z,10.30
2022-10-07T00:18:18.271Z,10.30
2022-10-07T00:20:47.120Z,10.30
2022-10-07T00:23:13.763Z,10.20
2022-10-07T00:25:40.417Z,10.20
2022-10-07T00:28:08.329Z,10.10
2022-10-07T00:30:35.094Z,10.10
2022-10-07T00:33:04.003Z,10.10
2022-10-07T00:35:30.660Z,10.10
2022-10-07T00:37:57.317Z,10.00
2022-10-07T00:40:28.785Z,10.00
2022-10-07T00:42:55.432Z,10.00
2022-10-07T00:45:24.687Z,10.00
2022-10-07T00:47:51.678Z,9.90
2022-10-07T00:50:25.977Z,10.00
2022-10-07T00:52:58.877Z,9.90
2022-10-07T00:55:30.893Z,9.90
2022-10-07T00:58:06.553Z,9.90
2022-10-07T01:00:35.749Z,9.90
2022-10-07T01:03:03.669Z,9.80
2022-10-07T01:05:30.374Z,9.80
2022-10-07T01:08:01.098Z,9.80
2022-10-07T01:10:37.634Z,9.80
2022-10-07T01:13:24.028Z,9.80
2022-10-07T01:15:53.611Z,9.70
2022-10-07T01:18:25.698Z,9.70
2022-10-07T01:21:05.967Z,9.70
2022-10-07T01:23:46.711Z,9.70
2022-10-07T01:26:25.777Z,9.60
2022-10-07T01:28:58.773Z,9.70
2022-10-07T01:31:32.599Z,9.70
2022-10-07T01:34:00.415Z,9.70
2022-10-07T01:36:27.712Z,9.70
2022-10-07T01:39:03.114Z,9.60
2022-10-07T01:41:36.690Z,9.60
2022-10-07T01:44:04.198Z,9.60
2022-10-07T01:46:31.245Z,9.60
2022-10-07T01:48:58.018Z,9.50
2022-10-07T01:51:28.718Z,9.50
2022-10-07T01:54:24.676Z,9.40
2022-10-07T01:56:59.596Z,9.40
2022-10-07T01:59:44.928Z,9.40
2022-10-07T02:02:20.408Z,9.40
2022-10-07T02:05:13.397Z,9.40
2022-10-07T02:08:08.398Z,9.30
2022-10-07T02:10:46.934Z,9.30
2022-10-07T02:13:32.145Z,9.30
2022-10-07T02:16:13.054Z,9.40
2022-10-07T02:18:48.077Z,9.40
2022-10-07T02:21:18.696Z,9.40
2022-10-07T02:23:46.883Z,9.40
2022-10-07T02:26:22.099Z,9.30
2022-10-07T02:28:54.577Z,9.40
2022-10-07T02:31:26.454Z,9.30
2022-10-07T02:33:57.115Z,9.40
2022-10-07T02:36:31.740Z,9.40
2022-10-07T02:39:01.498Z,9.40
2022-10-07T02:41:35.367Z,9.40
2022-10-07T02:44:26.548Z,9.40
2022-10-07T02:47:14.205Z,9.40
2022-10-07T02:49:45.224Z,9.40
2022-10-07T02:52:17.173Z,9.30
2022-10-07T02:55:00.320Z,9.40
2022-10-07T02:57:30.304Z,9.50
2022-10-07T02:59:58.179Z,9.40
2022-10-07T03:02:51.874Z,9.40
2022-10-07T03:05:20.306Z,9.30
2022-10-07T03:07:53.890Z,9.30
2022-10-07T03:10:20.702Z,9.30
2022-10-07T03:12:47.399Z,9.40
2022-10-07T03:15:14.157Z,9.40
2022-10-07T03:17:41.120Z,9.50
2022-10-07T03:20:09.881Z,9.50
2022-10-07T03:22:36.599Z,9.50
2022-10-07T03:25:05.951Z,9.50
2022-10-07T03:27:32.648Z,9.50
2022-10-07T03:30:01.899Z,9.50
2022-10-07T03:32:28.524Z,9.50
2022-10-07T03:34:55.463Z,9.60
2022-10-07T03:37:23.098Z,9.50
2022-10-07T03:39:50.531Z,9.50
2022-10-07T03:42:17.295Z,9.40
2022-10-07T03:44:43.970Z,9.40
2022-10-07T03:47:11.413Z,9.40
2022-10-07T03:49:41.537Z,9.40
2022-10-07T03:52:08.200Z,9.40
2022-10-07T03:54:34.859Z,9.40
2022-10-07T03:57:01.719Z,9.40
2022-10-07T03:59:28.510Z,9.40
2022-10-07T04:01:55.226Z,9.40
2022-10-07T04:04:21.884Z,9.40
2022-10-07T04:06:48.573Z,9.50
2022-10-07T04:09:15.542Z,9.30
2022-10-07T04:11:43.212Z,9.30
2022-10-07T04:14:09.897Z,9.30
2022-10-07T04:16:39.066Z,9.40
2022-10-07T04:19:05.992Z,9.30
2022-10-07T04:21:33.444Z,9.30
2022-10-07T04:24:00.198Z,9.30
2022-10-07T04:26:29.367Z,9.30
2022-10-07T04:28:56.025Z,9.20
2022-10-07T04:31:22.821Z,9.30
2022-10-07T04:33:50.068Z,9.30
2022-10-07T04:36:19.421Z,9.30
2022-10-07T04:38:52.953Z,9.30
2022-10-07T04:41:19.656Z,9.30
2022-10-07T04:43:57.543Z,9.20
2022-10-07T04:46:24.878Z,9.30
2022-10-07T04:48:53.915Z,9.20
2022-10-07T04:53:56.702Z,9.10
2022-10-07T04:56:28.296Z,9.00
2022-10-07T04:58:55.871Z,9.00
2022-10-07T05:01:24.972Z,9.00
2022-10-07T05:03:51.750Z,8.90
2022-10-07T05:06:18.419Z,8.90
2022-10-07T05:08:45.260Z,8.90
2022-10-07T05:11:14.065Z,8.90
2022-10-07T05:13:40.720Z,9.00
2022-10-07T05:16:09.741Z,9.00
2022-10-07T05:18:39.278Z,8.90
2022-10-07T05:21:07.493Z,8.90
2022-10-07T05:23:36.773Z,8.90
2022-10-07T05:26:07.973Z,8.90
2022-10-07T05:28:40.475Z,8.90
2022-10-07T05:31:12.953Z,9.00
2022-10-07T05:33:40.139Z,9.00
2022-10-07T05:36:11.434Z,9.00
2022-10-07T05:38:38.160Z,9.00
2022-10-07T05:41:10.482Z,9.00
2022-10-07T05:43:40.415Z,9.00
2022-10-07T05:46:08.441Z,8.90
2022-10-07T05:48:39.319Z,8.90
2022-10-07T05:51:08.252Z,8.90
2022-10-07T05:53:35.127Z,9.00
2022-10-07T05:56:09.887Z,9.00
2022-10-07T05:58:39.232Z,9.00
2022-10-07T06:01:11.592Z,9.00
2022-10-07T06:03:39.961Z,9.00
2022-10-07T06:06:07.100Z,9.10
2022-10-07T06:08:36.895Z,9.10
2022-10-07T06:11:23.731Z,9.10
2022-10-07T06:13:58.940Z,9.10
2022-10-07T06:16:28.590Z,9.00
2022-10-07T06:18:56.335Z,9.00
2022-10-07T06:21:27.590Z,9.00
2022-10-07T06:23:56.099Z,9.10
2022-10-07T06:26:26.074Z,9.10
2022-10-07T06:28:52.705Z,9.10
2022-10-07T06:31:25.055Z,9.10
2022-10-07T06:33:54.696Z,9.10
2022-10-07T06:36:21.449Z,9.10
2022-10-07T06:38:51.016Z,9.20
2022-10-07T06:41:18.589Z,9.20
2022-10-07T06:43:45.683Z,9.20
2022-10-07T06:46:22.308Z,9.20
2022-10-07T06:48:50.313Z,9.30
2022-10-07T06:51:21.709Z,9.30
2022-10-07T06:53:52.455Z,9.40
2022-10-07T06:56:19.517Z,9.40
2022-10-07T06:58:50.744Z,9.50
2022-10-07T07:01:19.952Z,9.50
2022-10-07T07:03:46.900Z,9.50
2022-10-07T07:06:15.877Z,9.50
2022-10-07T07:08:45.873Z,9.50
2022-10-07T07:11:31.728Z,9.40
2022-10-07T07:13:58.994Z,9.40
2022-10-07T07:16:25.717Z,9.40
2022-10-07T07:18:53.834Z,9.40
2022-10-07T07:21:21.559Z,9.40
2022-10-07T07:23:48.727Z,9.50
2022-10-07T07:26:20.452Z,9.50
2022-10-07T07:29:14.708Z,9.50
2022-10-07T07:31:41.447Z,9.60
2022-10-07T07:34:13.283Z,9.60
2022-10-07T07:36:44.924Z,9.50
2022-10-07T07:39:17.252Z,9.60
2022-10-07T07:41:50.685Z,9.60
2022-10-07T07:44:18.795Z,9.70
2022-10-07T07:46:52.085Z,9.70
2022-10-07T07:49:20.873Z,9.70
2022-10-07T07:51:47.858Z,9.70
2022-10-07T07:54:14.968Z,9.70
2022-10-07T07:56:41.796Z,9.80
2022-10-07T07:59:08.625Z,9.80
2022-10-07T08:01:39.018Z,9.80
2022-10-07T08:04:08.226Z,9.90
2022-10-07T08:06:37.636Z,10.10
2022-10-07T08:09:04.419Z,10.10
2022-10-07T08:14:00.933Z,10.30
2022-10-07T08:16:30.909Z,10.40
2022-10-07T08:18:57.839Z,10.40
2022-10-07T08:21:32.857Z,10.50
2022-10-07T08:24:04.085Z,10.60
2022-10-07T08:26:33.117Z,10.60
2022-10-07T08:29:01.360Z,10.70
2022-10-07T08:31:29.396Z,10.70
2022-10-07T08:33:59.619Z,10.80
2022-10-07T08:36:28.671Z,10.90
2022-10-07T08:38:56.018Z,11.00
2022-10-07T08:41:35.416Z,11.00
2022-10-07T08:44:17.010Z,11.10
2022-10-07T08:47:10.097Z,11.20
2022-10-07T08:49:48.449Z,11.20
2022-10-07T08:52:41.255Z,11.30
2022-10-07T08:55:18.665Z,11.40
2022-10-07T08:58:05.514Z,11.50
2022-10-07T09:00:57.056Z,11.60
2022-10-07T09:03:31.365Z,11.70
2022-10-07T09:05:59.671Z,11.80
2022-10-07T09:08:40.352Z,11.90
2022-10-07T09:11:16.246Z,12.00
2022-10-07T09:13:47.186Z,12.20
2022-10-07T09:16:35.785Z,12.30
2022-10-07T09:19:03.700Z,12.40
2022-10-07T09:21:50.856Z,12.50
2022-10-07T09:24:24.984Z,12.60
2022-10-07T09:26:55.180Z,12.80
2022-10-07T09:29:24.290Z,12.90
2022-10-07T09:31:51.173Z,13.00
2022-10-07T09:34:25.034Z,13.10
2022-10-07T09:37:10.802Z,13.20
2022-10-07T09:39:38.087Z,13.30
2022-10-07T09:42:08.659Z,13.20
2022-10-07T09:44:36.428Z,13.40
2022-10-07T09:47:24.303Z,13.70
2022-10-07T09:49:56.735Z,13.60
2022-10-07T09:52:27.534Z,13.60
2022-10-07T09:54:57.496Z,13.60
2022-10-07T09:57:35.911Z,13.60
2022-10-07T10:00:26.270Z,13.70
2022-10-07T10:03:05.278Z,13.80
2022-10-07T10:05:35.644Z,14.00
2022-10-07T10:08:25.290Z,14.30
2022-10-07T10:11:13.638Z,14.60
2022-10-07T10:13:40.878Z,14.80
2022-10-07T10:16:28.757Z,15.10
2022-10-07T10:18:55.578Z,15.20
2022-10-07T10:21:41.857Z,15.40
2022-10-07T10:24:14.562Z,15.50
2022-10-07T10:27:03.668Z,15.70
2022-10-07T10:32:49.911Z,15.90
2022-10-07T10:35:27.550Z,15.90
2022-10-07T10:38:20.742Z,16.00
2022-10-07T10:41:07.637Z,16.10
2022-10-07T10:44:12.399Z,16.20
2022-10-07T10:46:52.168Z,16.20
2022-10-07T10:49:25.394Z,16.00
2022-10-07T10:52:14.347Z,15.90
2022-10-07T10:55:01.454Z,15.80
2022-10-07T10:58:04.978Z,15.70
2022-10-07T11:00:57.628Z,15.70
2022-10-07T11:03:55.962Z,15.50
2022-10-07T11:06:23.442Z,15.50
2022-10-07T11:08:53.400Z,15.40
2022-10-07T11:11:22.451Z,15.40
2022-10-07T11:13:54.445Z,15.50
2022-10-07T11:16:39.545Z,15.60
2022-10-07T11:19:22.177Z,15.70
2022-10-07T11:21:52.523Z,15.70
2022-10-07T11:24:34.060Z,15.60
2022-10-07T11:27:14.897Z,15.50
2022-10-07T11:30:00.470Z,15.50
2022-10-07T11:32:55.689Z,15.60
2022-10-07T11:35:36.660Z,15.70
2022-10-07T11:38:15.032Z,15.80
2022-10-07T11:40:50.603Z,16.00
2022-10-07T11:43:44.661Z,16.10
2022-10-07T11:46:30.808Z,16.10
2022-10-07T11:49:20.433Z,16.00
2022-10-07T11:51:53.896Z,16.00
2022-10-07T11:54:22.708Z,16.20
2022-10-07T11:56:52.377Z,16.20
2022-10-07T11:59:47.996Z,16.10
2022-10-07T12:02:30.042Z,16.30
2022-10-07T12:05:01.609Z,16.50
2022-10-07T12:07:44.927Z,16.50
2022-10-07T12:10:21.914Z,16.60
2022-10-07T12:12:53.844Z,16.70
2022-10-07T12:15:38.711Z,16.70
2022-10-07T12:18:05.414Z,16.80
2022-10-07T12:20:35.077Z,16.80
2022-10-07T12:23:16.697Z,16.80
2022-10-07T12:25:46.971Z,16.90
2022-10-07T12:28:26.545Z,16.90
2022-10-07T12:30:55.899Z,16.90
2022-10-07T12:33:29.214Z,17.00
2022-10-07T12:38:28.024Z,17.10
2022-10-07T12:41:40.430Z,17.20
2022-10-07T12:44:27.503Z,17.30
2022-10-07T12:47:21.358Z,17.30
2022-10-07T12:50:11.295Z,17.20
2022-10-07T12:52:50.550Z,17.20
2022-10-07T12:55:23.812Z,17.30
2022-10-07T12:57:54.651Z,17.30
2022-10-07T13:00:26.792Z,17.30
2022-10-07T13:03:36.465Z,17.30
2022-10-07T13:06:09.217Z,17.40
2022-10-07T13:09:06.677Z,17.30
2022-10-07T13:11:36.630Z,17.20
2022-10-07T13:14:30.453Z,17.30
2022-10-07T13:17:13.448Z,17.20
2022-10-07T13:20:02.839Z,17.00
2022-10-07T13:25:03.878Z,17.20
2022-10-07T13:27:33.285Z,17.20
2022-10-07T13:30:04.555Z,17.10
2022-10-07T13:32:34.341Z,17.10
2022-10-07T13:35:30.001Z,17.20
2022-10-07T13:37:56.855Z,17.20
2022-10-07T13:40:37.241Z,17.30
2022-10-07T13:43:08.869Z,17.20
2022-10-07T13:45:45.085Z,17.20
2022-10-07T13:48:35.069Z,17.20
2022-10-07T13:51:05.137Z,17.30
2022-10-07T13:53:36.874Z,17.20
2022-10-07T13:56:26.298Z,17.30
2022-10-07T13:58:55.110Z,17.20
2022-10-07T14:01:27.698Z,17.20
2022-10-07T14:04:18.814Z,17.30
2022-10-07T14:06:54.744Z,17.30
2022-10-07T14:09:49.884Z,17.40
2022-10-07T14:12:23.813Z,17.60
2022-10-07T14:14:53.694Z,17.80
2022-10-07T14:17:28.439Z,18.00
2022-10-07T14:19:59.011Z,18.00
2022-10-07T14:22:41.057Z,18.10
2022-10-07T14:25:29.965Z,18.20
2022-10-07T14:28:07.583Z,18.60
2022-10-07T14:30:57.873Z,19.20
2022-10-07T14:36:18.606Z,20.90
2022-10-07T14:38:46.489Z,22.90
2022-10-07T14:41:15.576Z,25.20
2022-10-07T14:43:44.861Z,26.30
2022-10-07T14:46:19.324Z,26.80
2022-10-07T14:48:46.654Z,28.20
2022-10-07T14:56:27.988Z,25.90
2022-10-07T14:58:57.484Z,24.10
2022-10-07T15:01:25.259Z,22.70
2022-10-07T15:03:52.768Z,21.60
2022-10-07T15:06:20.585Z,20.90
2022-10-07T15:11:20.022Z,19.90
2022-10-07T15:13:48.660Z,19.70
2022-10-07T15:18:51.905Z,19.10
2022-10-07T15:21:20.514Z,18.90
2022-10-07T15:23:54.222Z,18.70
2022-10-07T15:26:24.638Z,18.60
2022-10-07T15:28:54.272Z,18.40
2022-10-07T15:31:21.853Z,18.30
2022-10-07T15:33:48.909Z,18.30
2022-10-07T15:36:15.855Z,18.10
2022-10-07T15:38:42.483Z,18.10
2022-10-07T15:41:09.331Z,18.00
2022-10-07T15:43:38.473Z,18.00
2022-10-07T15:46:05.290Z,17.90
2022-10-07T15:48:34.554Z,17.80
2022-10-07T15:51:04.755Z,17.70
2022-10-07T15:53:34.919Z,17.60
2022-10-07T15:56:01.590Z,17.60
2022-10-07T15:58:30.347Z,17.60
2022-10-07T16:00:58.625Z,17.60
2022-10-07T16:03:25.833Z,17.50
2022-10-07T16:06:00.505Z,17.40
2022-10-07T16:08:27.734Z,17.40
2022-10-07T16:10:54.640Z,17.30
2022-10-07T16:13:23.092Z,17.30
2022-10-07T16:16:02.504Z,17.30
2022-10-07T16:18:37.078Z,17.10
2022-10-07T16:21:09.483Z,17.10
2022-10-07T16:23:37.946Z,17.10
2022-10-07T16:26:10.245Z,17.10
2022-10-07T16:28:59.799Z,17.00
2022-10-07T16:31:27.185Z,17.10
2022-10-07T16:33:54.762Z,16.90
2022-10-07T16:36:23.454Z,16.80
2022-10-07T16:38:53.887Z,16.80
2022-10-07T16:41:23.043Z,16.70
2022-10-07T16:43:52.111Z,16.70
2022-10-07T16:46:21.368Z,16.60
2022-10-07T16:48:49.192Z,16.50
2022-10-07T16:51:21.995Z,16.40
2022-10-07T16:53:50.605Z,16.30
2022-10-07T16:56:19.135Z,16.30
2022-10-07T16:58:49.755Z,16.10
2022-10-07T17:01:18.945Z,16.00
2022-10-07T17:03:49.770Z,16.00
2022-10-07T17:06:18.791Z,15.90
2022-10-07T17:08:49.071Z,15.90
2022-10-07T17:11:29.675Z,15.80
2022-10-07T17:14:04.224Z,15.70
2022-10-07T17:16:37.858Z,15.70
2022-10-07T17:19:10.994Z,15.60
2022-10-07T17:21:39.687Z,15.50
2022-10-07T17:24:06.547Z,15.40
2022-10-07T17:26:33.385Z,15.40
2022-10-07T17:29:03.996Z,15.30
2022-10-07T17:31:31.523Z,15.30
2022-10-07T17:34:03.190Z,15.10
2022-10-07T17:36:31.084Z,15.10
2022-10-07T17:39:00.862Z,15.10
2022-10-07T17:41:28.588Z,14.90
2022-10-07T17:43:57.738Z,14.90
2022-10-07T17:46:26.553Z,14.90
2022-10-07T17:48:57.823Z,14.90
2022-10-07T17:51:29.372Z,14.80
2022-10-07T17:53:57.623Z,14.80
2022-10-07T17:56:27.533Z,14.80
2022-10-07T17:58:54.658Z,14.70
2022-10-07T18:01:28.885Z,14.80
2022-10-07T18:04:10.142Z,14.70
2022-10-07T18:06:38.112Z,14.70
2022-10-07T18:09:07.622Z,14.70
2022-10-07T18:11:53.415Z,14.70
2022-10-07T18:14:38.833Z,14.70
2022-10-07T18:17:07.069Z,14.70
2022-10-07T18:19:33.736Z,14.70
2022-10-07T18:22:01.094Z,14.70
2022-10-07T18:24:29.293Z,14.70
2022-10-07T18:27:03.161Z,14.70
2022-10-07T18:29:32.408Z,14.60
2022-10-07T18:31:59.962Z,14.60
2022-10-07T18:34:26.992Z,14.60
2022-10-07T18:36:57.233Z,14.60
2022-10-07T18:39:27.100Z,14.50
2022-10-07T18:41:54.304Z,14.50
2022-10-07T18:44:21.689Z,14.40
2022-10-07T18:46:48.665Z,14.40
2022-10-07T18:49:16.775Z,14.30
2022-10-07T18:51:46.879Z,14.30
2022-10-07T18:54:13.739Z,14.30
2022-10-07T18:56:42.657Z,14.30
2022-10-07T18:59:13.029Z,14.30
2022-10-07T19:01:44.386Z,14.30
2022-10-07T19:04:19.606Z,14.30
2022-10-07T19:06:47.278Z,14.20
2022-10-07T19:09:19.461Z,14.20
2022-10-07T19:11:46.463Z,14.10
2022-10-07T19:14:13.916Z,14.10
2022-10-07T19:16:46.007Z,14.00
2022-10-07T19:19:17.088Z,14.00
2022-10-07T19:21:46.334Z,14.00
2022-10-07T19:24:14.167Z,14.10
2022-10-07T19:26:45.785Z,14.00
2022-10-07T19:29:13.452Z,14.00
2022-10-07T19:31:43.751Z,14.00
2022-10-07T19:34:13.252Z,14.00
2022-10-07T19:36:46.692Z,14.00
2022-10-07T19:39:19.084Z,13.90
2022-10-07T19:41:46.199Z,13.90
2022-10-07T19:44:13.516Z,13.80
2022-10-07T19:46:40.255Z,13.80
2022-10-07T19:49:07.564Z,13.80
2022-10-07T19:51:35.263Z,13.70
2022-10-07T19:54:05.653Z,13.60
2022-10-07T19:56:37.423Z,13.50
2022-10-07T19:59:13.332Z,13.60
2022-10-07T20:01:44.668Z,13.60
2022-10-07T20:04:13.849Z,13.50
2022-10-07T20:06:41.385Z,13.50
2022-10-07T20:09:13.915Z,13.40
2022-10-07T20:11:41.022Z,13.30
2022-10-07T20:14:07.772Z,13.30
2022-10-07T20:16:34.952Z,13.30
2022-10-07T20:19:09.178Z,13.20
2022-10-07T20:21:40.122Z,13.20
2022-10-07T20:24:08.470Z,13.10
2022-10-07T20:26:38.234Z,13.10
2022-10-07T20:29:07.273Z,13.00
2022-10-07T20:31:42.468Z,13.00
2022-10-07T20:34:16.566Z,13.00
2022-10-07T20:36:46.893Z,13.00
2022-10-07T20:39:35.119Z,13.00
2022-10-07T20:42:20.770Z,12.80
2022-10-07T20:44:53.989Z,12.80
2022-10-07T20:47:22.688Z,12.80
2022-10-07T20:49:52.019Z,12.80
2022-10-07T20:52:21.959Z,12.70
2022-10-07T20:54:49.386Z,12.70
2022-10-07T20:57:19.495Z,12.70
2022-10-07T20:59:50.678Z,12.60
2022-10-07T21:02:22.995Z,12.70
2022-10-07T21:04:49.806Z,12.60
2022-10-07T21:07:20.259Z,12.60
2022-10-07T21:09:47.734Z,12.50
2022-10-07T21:12:16.902Z,12.60
2022-10-07T21:14:44.212Z,12.50
2022-10-07T21:17:11.656Z,12.40
2022-10-07T21:19:38.379Z,12.50
2022-10-07T21:22:05.969Z,12.40
2022-10-07T21:24:35.958Z,12.50
2022-10-07T21:27:09.427Z,12.50
2022-10-07T21:29:40.372Z,12.50
2022-10-07T21:32:08.401Z,12.40
2022-10-07T21:34:35.108Z,12.40
2022-10-07T21:37:02.733Z,12.30
2022-10-07T21:39:29.430Z,12.30
2022-10-07T21:41:57.990Z,12.20
2022-10-07T21:44:25.346Z,12.20
2022-10-07T21:46:52.100Z,12.30
2022-10-07T21:49:23.328Z,12.30
2022-10-07T21:51:52.258Z,12.30
2022-10-07T21:54:20.093Z,12.30
2022-10-07T21:56:47.012Z,12.20
2022-10-07T21:59:14.156Z,12.10
2022-10-07T22:01:42.347Z,12.10
2022-10-07T22:04:17.563Z,12.10
2022-10-07T22:07:03.331Z,12.10
2022-10-07T22:09:31.123Z,12.10
2022-10-07T22:12:00.529Z,12.00
2022-10-07T22:14:27.804Z,12.00
2022-10-07T22:16:54.671Z,11.90
2022-10-07T22:19:23.801Z,12.00
2022-10-07T22:21:51.042Z,11.90
2022-10-07T22:24:17.799Z,12.00
2022-10-07T22:26:46.846Z,11.90
2022-10-07T22:29:19.250Z,11.90
2022-10-07T22:31:47.024Z,11.90
2022-10-07T22:34:34.604Z,12.00
2022-10-07T22:37:01.534Z,11.90
2022-10-07T22:39:30.900Z,11.90
2022-10-07T22:41:58.714Z,11.80
2022-10-07T22:44:28.603Z,11.80
2022-10-07T22:46:56.617Z,11.80
2022-10-07T22:49:28.644Z,11.80
2022-10-07T22:51:59.406Z,11.80
2022-10-07T22:54:26.535Z,11.80
2022-10-07T22:56:53.233Z,11.70
2022-10-07T22:59:21.177Z,11.70
2022-10-07T23:01:47.913Z,11.70
2022-10-07T23:04:20.202Z,11.70
2022-10-07T23:06:47.009Z,11.70
2022-10-07T23:09:13.766Z,11.60
2022-10-07T23:11:42.613Z,11.60
2022-10-07T23:14:12.549Z,11.50
2022-10-07T23:16:39.115Z,11.50
2022-10-07T23:19:05.805Z,11.50
2022-10-07T23:21:35.346Z,11.40
2022-10-07T23:24:07.380Z,11.40
2022-10-07T23:26:39.878Z,11.40
2022-10-07T23:29:07.695Z,11.40
2022-10-07T23:31:34.537Z,11.40
2022-10-07T23:34:06.509Z,11.40
2022-10-07T23:36:35.715Z,11.40
2022-10-07T23:39:02.622Z,11.40
2022-10-07T23:41:32.185Z,11.40
2022-10-07T23:44:02.043Z,11.40
2022-10-07T23:46:33.091Z,11.40
2022-10-07T23:49:03.634Z,11.40
2022-10-07T23:51:31.345Z,11.40
2022-10-07T23:53:59.546Z,11.20
2022-10-07T23:56:26.723Z,11.10
2022-10-07T23:58:55.852Z,11.10
